sensor_id;sensor_type;location;lat;lon;timestamp;P1;durP1;ratioP1;P2;durP2;ratioP2
3733;SDS011;1882;52.256;8.874;2022-11-04T00:01:51;6.33;;;4.00;;
3733;SDS011;1882;52.256;8.874;2022-11-04T00:04:19;7.80;;;4.20;;
3733;SDS011;1882;52.256;8.874;2022-11-04T00:06:47;7.23;;;3.77;;
3733;SDS011;1882;52.256;8.874;2022-11-04T00:09:15;4.63;;;3.90;;
3733;SDS011;1882;52.256;8.874;2022-11-04T00:11:49;4.90;;;4.00;;
3733;SDS011;1882;52.256;8.874;2022-11-04T00:14:34;15.83;;;4.10;;
3733;SDS011;1882;52.256;8.874;2022-11-04T00:17:02;8.97;;;3.80;;
3733;SDS011;1882;52.256;8.874;2022-11-04T00:19:48;4.47;;;4.03;;
3733;SDS011;1882;52.256;8.874;2022-11-04T00:22:34;4.20;;;3.47;;
3733;SDS011;1882;52.256;8.874;2022-11-04T00:25:20;3.93;;;3.53;;
3733;SDS011;1882;52.256;8.874;2022-11-04T00:28:13;4.63;;;3.40;;
3733;SDS011;1882;52.256;8.874;2022-11-04T00:31:00;8.27;;;4.03;;
3733;SDS011;1882;52.256;8.874;2022-11-04T00:33:47;7.53;;;3.77;;
3733;SDS011;1882;52.256;8.874;2022-11-04T00:36:14;5.83;;;3.70;;
3733;SDS011;1882;52.256;8.874;2022-11-04T00:38:41;4.80;;;3.73;;
3733;SDS011;1882;52.256;8.874;2022-11-04T00:41:08;5.50;;;4.00;;
3733;SDS011;1882;52.256;8.874;2022-11-04T00:44:01;4.63;;;3.40;;
3733;SDS011;1882;52.256;8.874;2022-11-04T00:46:29;4.57;;;3.73;;
3733;SDS011;1882;52.256;8.874;2022-11-04T00:48:57;4.83;;;3.73;;
3733;SDS011;1882;52.256;8.874;2022-11-04T00:51:24;5.50;;;3.80;;
3733;SDS011;1882;52.256;8.874;2022-11-04T00:53:51;5.63;;;3.60;;
3733;SDS011;1882;52.256;8.874;2022-11-04T00:56:17;3.60;;;3.23;;
3733;SDS011;1882;52.256;8.874;2022-11-04T00:58:44;4.17;;;3.33;;
3733;SDS011;1882;52.256;8.874;2022-11-04T01:01:13;4.67;;;3.80;;
3733;SDS011;1882;52.256;8.874;2022-11-04T01:03:44;5.70;;;3.60;;
3733;SDS011;1882;52.256;8.874;2022-11-04T01:06:12;6.67;;;3.60;;
3733;SDS011;1882;52.256;8.874;2022-11-04T01:08:39;4.40;;;3.77;;
3733;SDS011;1882;52.256;8.874;2022-11-04T01:11:06;4.73;;;3.50;;
3733;SDS011;1882;52.256;8.874;2022-11-04T01:13:34;6.43;;;3.93;;
3733;SDS011;1882;52.256;8.874;2022-11-04T01:16:01;4.17;;;3.73;;
3733;SDS011;1882;52.256;8.874;2022-11-04T01:18:29;5.17;;;3.67;;
3733;SDS011;1882;52.256;8.874;2022-11-04T01:20:59;6.10;;;3.80;;
3733;SDS011;1882;52.256;8.874;2022-11-04T01:23:27;4.53;;;3.83;;
3733;SDS011;1882;52.256;8.874;2022-11-04T01:25:54;5.73;;;4.20;;
3733;SDS011;1882;52.256;8.874;2022-11-04T01:28:20;5.90;;;4.17;;
3733;SDS011;1882;52.256;8.874;2022-11-04T01:30:47;5.80;;;3.97;;
3733;SDS011;1882;52.256;8.874;2022-11-04T01:33:13;4.97;;;3.83;;
3733;SDS011;1882;52.256;8.874;2022-11-04T01:35:40;4.93;;;3.97;;
3733;SDS011;1882;52.256;8.874;2022-11-04T01:38:07;5.33;;;3.30;;
3733;SDS011;1882;52.256;8.874;2022-11-04T01:40:35;5.10;;;3.40;;
3733;SDS011;1882;52.256;8.874;2022-11-04T01:43:12;4.37;;;3.70;;
3733;SDS011;1882;52.256;8.874;2022-11-04T01:45:41;5.30;;;3.67;;
3733;SDS011;1882;52.256;8.874;2022-11-04T01:48:15;4.43;;;3.90;;
3733;SDS011;1882;52.256;8.874;2022-11-04T01:50:46;8.70;;;3.50;;
3733;SDS011;1882;52.256;8.874;2022-11-04T01:53:15;3.87;;;3.57;;
3733;SDS011;1882;52.256;8.874;2022-11-04T01:55:46;6.07;;;3.93;;
3733;SDS011;1882;52.256;8.874;2022-11-04T01:58:18;5.13;;;3.70;;
3733;SDS011;1882;52.256;8.874;2022-11-04T02:00:48;5.47;;;3.70;;
3733;SDS011;1882;52.256;8.874;2022-11-04T02:03:19;4.90;;;4.20;;
3733;SDS011;1882;52.256;8.874;2022-11-04T02:05:49;5.13;;;3.30;;
3733;SDS011;1882;52.256;8.874;2022-11-04T02:08:16;4.67;;;3.70;;
3733;SDS011;1882;52.256;8.874;2022-11-04T02:11:05;4.67;;;3.57;;
3733;SDS011;1882;52.256;8.874;2022-11-04T02:13:30;3.83;;;3.40;;
3733;SDS011;1882;52.256;8.874;2022-11-04T02:16:15;3.30;;;3.00;;
3733;SDS011;1882;52.256;8.874;2022-11-04T02:18:54;3.20;;;2.90;;
3733;SDS011;1882;52.256;8.874;2022-11-04T02:30:06;2.50;;;2.30;;
3733;SDS011;1882;52.256;8.874;2022-11-04T02:43:20;2.30;;;2.10;;
3733;SDS011;1882;52.256;8.874;2022-11-04T02:45:58;3.00;;;2.47;;
3733;SDS011;1882;52.256;8.874;2022-11-04T02:48:46;3.07;;;2.67;;
3733;SDS011;1882;52.256;8.874;2022-11-04T02:56:31;3.40;;;2.83;;
3733;SDS011;1882;52.256;8.874;2022-11-04T02:59:03;4.87;;;3.63;;
3733;SDS011;1882;52.256;8.874;2022-11-04T03:01:33;4.23;;;3.80;;
3733;SDS011;1882;52.256;8.874;2022-11-04T03:04:08;6.20;;;3.70;;
3733;SDS011;1882;52.256;8.874;2022-11-04T03:06:39;5.13;;;3.80;;
3733;SDS011;1882;52.256;8.874;2022-11-04T03:09:07;4.93;;;4.40;;
3733;SDS011;1882;52.256;8.874;2022-11-04T03:11:36;6.10;;;5.30;;
3733;SDS011;1882;52.256;8.874;2022-11-04T03:14:12;5.30;;;4.80;;
3733;SDS011;1882;52.256;8.874;2022-11-04T03:16:45;7.03;;;5.03;;
3733;SDS011;1882;52.256;8.874;2022-11-04T03:24:44;9.00;;;7.10;;
3733;SDS011;1882;52.256;8.874;2022-11-04T03:29:58;9.73;;;7.57;;
3733;SDS011;1882;52.256;8.874;2022-11-04T03:35:13;8.60;;;7.57;;
3733;SDS011;1882;52.256;8.874;2022-11-04T03:37:41;10.10;;;8.10;;
3733;SDS011;1882;52.256;8.874;2022-11-04T03:40:09;8.83;;;7.93;;
3733;SDS011;1882;52.256;8.874;2022-11-04T03:42:42;9.00;;;7.60;;
3733;SDS011;1882;52.256;8.874;2022-11-04T03:45:10;8.80;;;7.77;;
3733;SDS011;1882;52.256;8.874;2022-11-04T03:47:38;12.53;;;7.33;;
3733;SDS011;1882;52.256;8.874;2022-11-04T03:50:12;8.03;;;7.10;;
3733;SDS011;1882;52.256;8.874;2022-11-04T03:52:39;8.50;;;7.20;;
3733;SDS011;1882;52.256;8.874;2022-11-04T03:55:06;7.93;;;7.13;;
3733;SDS011;1882;52.256;8.874;2022-11-04T03:57:40;10.73;;;7.80;;
3733;SDS011;1882;52.256;8.874;2022-11-04T04:00:10;7.87;;;7.07;;
3733;SDS011;1882;52.256;8.874;2022-11-04T04:05:23;10.60;;;8.17;;
3733;SDS011;1882;52.256;8.874;2022-11-04T04:08:06;9.53;;;7.80;;
3733;SDS011;1882;52.256;8.874;2022-11-04T04:21:41;10.73;;;8.17;;
3733;SDS011;1882;52.256;8.874;2022-11-04T04:24:11;9.73;;;8.10;;
3733;SDS011;1882;52.256;8.874;2022-11-04T04:26:57;10.43;;;8.10;;
3733;SDS011;1882;52.256;8.874;2022-11-04T04:29:43;10.87;;;8.40;;
3733;SDS011;1882;52.256;8.874;2022-11-04T04:32:11;10.20;;;8.60;;
3733;SDS011;1882;52.256;8.874;2022-11-04T04:34:40;9.13;;;7.70;;
3733;SDS011;1882;52.256;8.874;2022-11-04T04:37:08;10.70;;;8.20;;
3733;SDS011;1882;52.256;8.874;2022-11-04T04:39:47;10.93;;;8.00;;
3733;SDS011;1882;52.256;8.874;2022-11-04T04:42:35;11.60;;;8.87;;
3733;SDS011;1882;52.256;8.874;2022-11-04T04:45:22;12.87;;;8.70;;
3733;SDS011;1882;52.256;8.874;2022-11-04T04:47:53;11.90;;;8.37;;
3733;SDS011;1882;52.256;8.874;2022-11-04T04:50:20;12.43;;;8.37;;
3733;SDS011;1882;52.256;8.874;2022-11-04T04:52:48;11.50;;;8.80;;
3733;SDS011;1882;52.256;8.874;2022-11-04T04:55:19;10.77;;;9.00;;
3733;SDS011;1882;52.256;8.874;2022-11-04T04:57:45;12.13;;;9.10;;
3733;SDS011;1882;52.256;8.874;2022-11-04T05:00:14;12.90;;;8.27;;
3733;SDS011;1882;52.256;8.874;2022-11-04T05:02:43;11.10;;;8.60;;
3733;SDS011;1882;52.256;8.874;2022-11-04T05:05:10;14.60;;;9.10;;
3733;SDS011;1882;52.256;8.874;2022-11-04T05:07:38;12.37;;;9.43;;
3733;SDS011;1882;52.256;8.874;2022-11-04T05:10:05;13.07;;;10.10;;
3733;SDS011;1882;52.256;8.874;2022-11-04T05:12:33;10.87;;;8.57;;
3733;SDS011;1882;52.256;8.874;2022-11-04T05:15:19;11.90;;;9.50;;
3733;SDS011;1882;52.256;8.874;2022-11-04T05:17:46;11.80;;;9.10;;
3733;SDS011;1882;52.256;8.874;2022-11-04T05:20:13;14.07;;;9.23;;
3733;SDS011;1882;52.256;8.874;2022-11-04T05:22:39;14.73;;;9.40;;
3733;SDS011;1882;52.256;8.874;2022-11-04T05:25:06;13.80;;;9.10;;
3733;SDS011;1882;52.256;8.874;2022-11-04T05:27:33;15.70;;;10.27;;
3733;SDS011;1882;52.256;8.874;2022-11-04T05:29:59;16.50;;;10.50;;
3733;SDS011;1882;52.256;8.874;2022-11-04T05:32:27;12.80;;;9.63;;
3733;SDS011;1882;52.256;8.874;2022-11-04T05:34:56;15.20;;;10.07;;
3733;SDS011;1882;52.256;8.874;2022-11-04T05:37:23;14.80;;;10.20;;
3733;SDS011;1882;52.256;8.874;2022-11-04T05:39:49;14.20;;;9.40;;
3733;SDS011;1882;52.256;8.874;2022-11-04T05:42:18;15.43;;;10.30;;
3733;SDS011;1882;52.256;8.874;2022-11-04T05:44:45;16.57;;;10.53;;
3733;SDS011;1882;52.256;8.874;2022-11-04T05:47:11;16.50;;;9.60;;
3733;SDS011;1882;52.256;8.874;2022-11-04T05:49:38;12.77;;;9.63;;
3733;SDS011;1882;52.256;8.874;2022-11-04T05:52:05;11.80;;;9.70;;
3733;SDS011;1882;52.256;8.874;2022-11-04T05:54:32;20.07;;;10.03;;
3733;SDS011;1882;52.256;8.874;2022-11-04T05:56:58;14.00;;;9.93;;
3733;SDS011;1882;52.256;8.874;2022-11-04T05:59:27;15.13;;;10.27;;
3733;SDS011;1882;52.256;8.874;2022-11-04T06:01:56;15.47;;;10.40;;
3733;SDS011;1882;52.256;8.874;2022-11-04T06:04:23;14.53;;;10.27;;
3733;SDS011;1882;52.256;8.874;2022-11-04T06:06:50;12.77;;;9.40;;
3733;SDS011;1882;52.256;8.874;2022-11-04T06:09:16;14.40;;;9.77;;
3733;SDS011;1882;52.256;8.874;2022-11-04T06:11:43;13.13;;;9.93;;
3733;SDS011;1882;52.256;8.874;2022-11-04T06:14:10;12.00;;;9.47;;
3733;SDS011;1882;52.256;8.874;2022-11-04T06:16:43;15.20;;;10.00;;
3733;SDS011;1882;52.256;8.874;2022-11-04T06:19:12;15.63;;;9.40;;
3733;SDS011;1882;52.256;8.874;2022-11-04T06:21:41;13.63;;;9.23;;
3733;SDS011;1882;52.256;8.874;2022-11-04T06:24:08;13.50;;;9.80;;
3733;SDS011;1882;52.256;8.874;2022-11-04T06:26:34;11.43;;;9.40;;
3733;SDS011;1882;52.256;8.874;2022-11-04T06:29:01;13.80;;;9.60;;
3733;SDS011;1882;52.256;8.874;2022-11-04T06:31:28;15.23;;;9.37;;
3733;SDS011;1882;52.256;8.874;2022-11-04T06:33:54;13.70;;;9.57;;
3733;SDS011;1882;52.256;8.874;2022-11-04T06:36:21;14.67;;;8.57;;
3733;SDS011;1882;52.256;8.874;2022-11-04T06:38:48;11.97;;;8.67;;
3733;SDS011;1882;52.256;8.874;2022-11-04T06:41:15;14.37;;;8.40;;
3733;SDS011;1882;52.256;8.874;2022-11-04T06:43:42;12.83;;;7.73;;
3733;SDS011;1882;52.256;8.874;2022-11-04T06:46:25;12.80;;;7.23;;
3733;SDS011;1882;52.256;8.874;2022-11-04T06:49:14;12.03;;;7.33;;
3733;SDS011;1882;52.256;8.874;2022-11-04T06:51:43;12.77;;;7.70;;
3733;SDS011;1882;52.256;8.874;2022-11-04T06:54:10;19.40;;;7.87;;
3733;SDS011;1882;52.256;8.874;2022-11-04T06:56:37;14.90;;;8.10;;
3733;SDS011;1882;52.256;8.874;2022-11-04T06:59:04;14.23;;;8.30;;
3733;SDS011;1882;52.256;8.874;2022-11-04T07:01:34;10.60;;;7.63;;
3733;SDS011;1882;52.256;8.874;2022-11-04T07:04:02;12.13;;;8.00;;
3733;SDS011;1882;52.256;8.874;2022-11-04T07:06:30;12.73;;;7.80;;
3733;SDS011;1882;52.256;8.874;2022-11-04T07:08:58;10.80;;;7.37;;
3733;SDS011;1882;52.256;8.874;2022-11-04T07:11:27;15.03;;;7.93;;
3733;SDS011;1882;52.256;8.874;2022-11-04T07:13:55;15.27;;;8.33;;
3733;SDS011;1882;52.256;8.874;2022-11-04T07:16:21;15.97;;;8.37;;
3733;SDS011;1882;52.256;8.874;2022-11-04T07:18:48;16.03;;;9.20;;
3733;SDS011;1882;52.256;8.874;2022-11-04T07:21:17;15.50;;;7.90;;
3733;SDS011;1882;52.256;8.874;2022-11-04T07:23:43;18.47;;;8.70;;
3733;SDS011;1882;52.256;8.874;2022-11-04T07:26:10;14.20;;;9.00;;
3733;SDS011;1882;52.256;8.874;2022-11-04T07:28:37;15.13;;;8.70;;
3733;SDS011;1882;52.256;8.874;2022-11-04T07:31:05;13.97;;;9.00;;
3733;SDS011;1882;52.256;8.874;2022-11-04T07:33:33;15.33;;;8.60;;
3733;SDS011;1882;52.256;8.874;2022-11-04T07:36:03;14.07;;;8.70;;
3733;SDS011;1882;52.256;8.874;2022-11-04T07:38:34;13.60;;;9.00;;
3733;SDS011;1882;52.256;8.874;2022-11-04T07:41:01;14.13;;;9.03;;
3733;SDS011;1882;52.256;8.874;2022-11-04T07:43:28;13.43;;;8.73;;
3733;SDS011;1882;52.256;8.874;2022-11-04T07:46:30;18.40;;;9.70;;
3733;SDS011;1882;52.256;8.874;2022-11-04T07:48:49;19.13;;;9.20;;
3733;SDS011;1882;52.256;8.874;2022-11-04T07:51:17;20.83;;;9.37;;
3733;SDS011;1882;52.256;8.874;2022-11-04T07:53:45;12.60;;;8.70;;
3733;SDS011;1882;52.256;8.874;2022-11-04T07:56:12;14.57;;;8.80;;
3733;SDS011;1882;52.256;8.874;2022-11-04T07:58:39;16.20;;;8.57;;
3733;SDS011;1882;52.256;8.874;2022-11-04T08:01:07;11.33;;;8.10;;
3733;SDS011;1882;52.256;8.874;2022-11-04T08:03:35;13.40;;;8.67;;
3733;SDS011;1882;52.256;8.874;2022-11-04T08:06:03;13.60;;;8.50;;
3733;SDS011;1882;52.256;8.874;2022-11-04T08:08:31;15.80;;;8.80;;
3733;SDS011;1882;52.256;8.874;2022-11-04T08:11:08;17.63;;;8.60;;
3733;SDS011;1882;52.256;8.874;2022-11-04T08:13:43;14.33;;;8.93;;
3733;SDS011;1882;52.256;8.874;2022-11-04T08:16:11;11.97;;;7.67;;
3733;SDS011;1882;52.256;8.874;2022-11-04T08:18:40;16.07;;;8.30;;
3733;SDS011;1882;52.256;8.874;2022-11-04T08:21:07;13.20;;;8.17;;
3733;SDS011;1882;52.256;8.874;2022-11-04T08:23:35;16.73;;;8.47;;
3733;SDS011;1882;52.256;8.874;2022-11-04T08:26:05;11.10;;;7.90;;
3733;SDS011;1882;52.256;8.874;2022-11-04T08:28:36;14.00;;;8.30;;
3733;SDS011;1882;52.256;8.874;2022-11-04T08:31:06;12.23;;;6.93;;
3733;SDS011;1882;52.256;8.874;2022-11-04T08:33:35;14.27;;;8.23;;
3733;SDS011;1882;52.256;8.874;2022-11-04T08:36:10;15.90;;;8.07;;
3733;SDS011;1882;52.256;8.874;2022-11-04T08:38:39;12.33;;;7.93;;
3733;SDS011;1882;52.256;8.874;2022-11-04T08:41:06;13.00;;;8.30;;
3733;SDS011;1882;52.256;8.874;2022-11-04T08:43:34;15.07;;;7.77;;
3733;SDS011;1882;52.256;8.874;2022-11-04T08:46:03;13.53;;;8.60;;
3733;SDS011;1882;52.256;8.874;2022-11-04T08:48:30;10.33;;;7.13;;
3733;SDS011;1882;52.256;8.874;2022-11-04T08:50:57;18.50;;;8.77;;
3733;SDS011;1882;52.256;8.874;2022-11-04T08:53:24;12.73;;;7.77;;
3733;SDS011;1882;52.256;8.874;2022-11-04T08:55:51;14.90;;;7.77;;
3733;SDS011;1882;52.256;8.874;2022-11-04T08:58:17;15.93;;;8.27;;
3733;SDS011;1882;52.256;8.874;2022-11-04T09:00:44;16.03;;;8.50;;
3733;SDS011;1882;52.256;8.874;2022-11-04T09:03:13;14.20;;;7.87;;
3733;SDS011;1882;52.256;8.874;2022-11-04T09:05:40;17.70;;;7.80;;
3733;SDS011;1882;52.256;8.874;2022-11-04T09:08:15;13.83;;;7.87;;
3733;SDS011;1882;52.256;8.874;2022-11-04T09:10:44;14.93;;;8.70;;
3733;SDS011;1882;52.256;8.874;2022-11-04T09:13:11;13.17;;;8.00;;
3733;SDS011;1882;52.256;8.874;2022-11-04T09:15:41;12.60;;;8.03;;
3733;SDS011;1882;52.256;8.874;2022-11-04T09:18:07;11.93;;;7.97;;
3733;SDS011;1882;52.256;8.874;2022-11-04T09:20:34;15.30;;;7.57;;
3733;SDS011;1882;52.256;8.874;2022-11-04T09:23:05;10.47;;;7.43;;
3733;SDS011;1882;52.256;8.874;2022-11-04T09:25:32;14.20;;;8.17;;
3733;SDS011;1882;52.256;8.874;2022-11-04T09:28:00;11.80;;;7.27;;
3733;SDS011;1882;52.256;8.874;2022-11-04T09:30:27;10.13;;;6.70;;
3733;SDS011;1882;52.256;8.874;2022-11-04T09:32:53;11.67;;;7.37;;
3733;SDS011;1882;52.256;8.874;2022-11-04T09:35:21;9.93;;;7.47;;
3733;SDS011;1882;52.256;8.874;2022-11-04T09:37:48;12.90;;;7.97;;
3733;SDS011;1882;52.256;8.874;2022-11-04T09:40:18;15.67;;;7.80;;
3733;SDS011;1882;52.256;8.874;2022-11-04T09:45:26;13.83;;;8.30;;
3733;SDS011;1882;52.256;8.874;2022-11-04T09:47:56;12.83;;;8.03;;
3733;SDS011;1882;52.256;8.874;2022-11-04T09:50:26;11.37;;;7.37;;
3733;SDS011;1882;52.256;8.874;2022-11-04T09:53:00;21.97;;;7.70;;
3733;SDS011;1882;52.256;8.874;2022-11-04T09:55:32;15.00;;;7.10;;
3733;SDS011;1882;52.256;8.874;2022-11-04T09:58:20;15.83;;;7.03;;
3733;SDS011;1882;52.256;8.874;2022-11-04T10:00:50;16.90;;;7.00;;
3733;SDS011;1882;52.256;8.874;2022-11-04T10:06:40;9.50;;;5.57;;
3733;SDS011;1882;52.256;8.874;2022-11-04T10:22:55;10.57;;;4.97;;
3733;SDS011;1882;52.256;8.874;2022-11-04T10:25:24;11.87;;;5.73;;
3733;SDS011;1882;52.256;8.874;2022-11-04T10:27:57;7.70;;;4.83;;
3733;SDS011;1882;52.256;8.874;2022-11-04T10:30:24;12.73;;;5.20;;
3733;SDS011;1882;52.256;8.874;2022-11-04T10:38:47;12.53;;;5.50;;
3733;SDS011;1882;52.256;8.874;2022-11-04T10:44:01;8.93;;;5.83;;
3733;SDS011;1882;52.256;8.874;2022-11-04T10:52:27;10.00;;;5.50;;
3733;SDS011;1882;52.256;8.874;2022-11-04T10:54:53;9.33;;;6.60;;
3733;SDS011;1882;52.256;8.874;2022-11-04T10:57:21;7.40;;;6.07;;
3733;SDS011;1882;52.256;8.874;2022-11-04T10:59:57;15.43;;;5.80;;
3733;SDS011;1882;52.256;8.874;2022-11-04T11:05:13;8.90;;;6.10;;
3733;SDS011;1882;52.256;8.874;2022-11-04T11:07:43;8.50;;;6.13;;
3733;SDS011;1882;52.256;8.874;2022-11-04T11:12:55;6.63;;;5.93;;
3733;SDS011;1882;52.256;8.874;2022-11-04T11:17:49;13.13;;;6.57;;
3733;SDS011;1882;52.256;8.874;2022-11-04T11:22:48;9.20;;;6.30;;
3733;SDS011;1882;52.256;8.874;2022-11-04T11:25:21;10.50;;;6.37;;
3733;SDS011;1882;52.256;8.874;2022-11-04T11:28:01;9.27;;;6.43;;
3733;SDS011;1882;52.256;8.874;2022-11-04T11:33:14;10.00;;;5.57;;
3733;SDS011;1882;52.256;8.874;2022-11-04T11:35:49;9.53;;;6.10;;
3733;SDS011;1882;52.256;8.874;2022-11-04T11:38:20;9.23;;;5.90;;
3733;SDS011;1882;52.256;8.874;2022-11-04T11:40:47;9.80;;;5.40;;
3733;SDS011;1882;52.256;8.874;2022-11-04T11:43:37;10.63;;;6.07;;
3733;SDS011;1882;52.256;8.874;2022-11-04T11:46:06;8.23;;;5.80;;
3733;SDS011;1882;52.256;8.874;2022-11-04T11:48:39;8.07;;;5.73;;
3733;SDS011;1882;52.256;8.874;2022-11-04T11:51:13;8.13;;;6.10;;
3733;SDS011;1882;52.256;8.874;2022-11-04T11:53:40;11.37;;;5.10;;
3733;SDS011;1882;52.256;8.874;2022-11-04T11:56:28;7.07;;;5.47;;
3733;SDS011;1882;52.256;8.874;2022-11-04T12:05:12;7.83;;;4.50;;
3733;SDS011;1882;52.256;8.874;2022-11-04T12:08:06;5.43;;;4.67;;
3733;SDS011;1882;52.256;8.874;2022-11-04T12:13:41;8.63;;;4.73;;
3733;SDS011;1882;52.256;8.874;2022-11-04T12:21:44;7.30;;;5.00;;
3733;SDS011;1882;52.256;8.874;2022-11-04T12:24:18;9.90;;;4.60;;
3733;SDS011;1882;52.256;8.874;2022-11-04T12:40:52;5.60;;;4.70;;
3733;SDS011;1882;52.256;8.874;2022-11-04T12:44:17;8.90;;;4.40;;
3733;SDS011;1882;52.256;8.874;2022-11-04T13:02:38;7.17;;;4.00;;
3733;SDS011;1882;52.256;8.874;2022-11-04T13:13:09;4.10;;;3.10;;
3733;SDS011;1882;52.256;8.874;2022-11-04T13:15:55;8.57;;;3.73;;
3733;SDS011;1882;52.256;8.874;2022-11-04T13:18:24;7.03;;;3.00;;
3733;SDS011;1882;52.256;8.874;2022-11-04T13:21:02;7.63;;;3.20;;
3733;SDS011;1882;52.256;8.874;2022-11-04T13:23:33;5.00;;;3.40;;
3733;SDS011;1882;52.256;8.874;2022-11-04T13:26:02;10.80;;;3.43;;
3733;SDS011;1882;52.256;8.874;2022-11-04T13:28:31;6.37;;;3.10;;
3733;SDS011;1882;52.256;8.874;2022-11-04T13:30:59;4.50;;;3.20;;
3733;SDS011;1882;52.256;8.874;2022-11-04T13:43:52;4.30;;;3.00;;
3733;SDS011;1882;52.256;8.874;2022-11-04T13:49:00;7.43;;;3.60;;
3733;SDS011;1882;52.256;8.874;2022-11-04T13:51:41;7.27;;;3.10;;
3733;SDS011;1882;52.256;8.874;2022-11-04T13:54:22;5.60;;;3.37;;
3733;SDS011;1882;52.256;8.874;2022-11-04T13:56:49;4.50;;;2.80;;
3733;SDS011;1882;52.256;8.874;2022-11-04T13:59:24;6.10;;;3.80;;
3733;SDS011;1882;52.256;8.874;2022-11-04T14:04:44;4.50;;;2.73;;
3733;SDS011;1882;52.256;8.874;2022-11-04T14:07:15;5.53;;;3.10;;
3733;SDS011;1882;52.256;8.874;2022-11-04T14:14:37;5.00;;;2.87;;
3733;SDS011;1882;52.256;8.874;2022-11-04T14:22:55;4.77;;;3.50;;
3733;SDS011;1882;52.256;8.874;2022-11-04T14:28:15;7.43;;;4.03;;
3733;SDS011;1882;52.256;8.874;2022-11-04T14:30:58;7.37;;;3.40;;
3733;SDS011;1882;52.256;8.874;2022-11-04T14:33:32;7.60;;;3.43;;
3733;SDS011;1882;52.256;8.874;2022-11-04T14:43:54;4.73;;;3.23;;
3733;SDS011;1882;52.256;8.874;2022-11-04T14:46:26;4.40;;;3.20;;
3733;SDS011;1882;52.256;8.874;2022-11-04T14:48:55;11.83;;;3.57;;
3733;SDS011;1882;52.256;8.874;2022-11-04T14:51:27;5.30;;;3.17;;
3733;SDS011;1882;52.256;8.874;2022-11-04T14:54:05;4.13;;;3.70;;
3733;SDS011;1882;52.256;8.874;2022-11-04T14:56:33;11.10;;;5.20;;
3733;SDS011;1882;52.256;8.874;2022-11-04T14:59:01;16.93;;;5.67;;
3733;SDS011;1882;52.256;8.874;2022-11-04T15:01:34;12.63;;;5.60;;
3733;SDS011;1882;52.256;8.874;2022-11-04T15:04:22;8.77;;;5.60;;
3733;SDS011;1882;52.256;8.874;2022-11-04T15:06:56;11.73;;;4.70;;
3733;SDS011;1882;52.256;8.874;2022-11-04T15:09:24;9.50;;;4.13;;
3733;SDS011;1882;52.256;8.874;2022-11-04T15:14:54;8.23;;;3.80;;
3733;SDS011;1882;52.256;8.874;2022-11-04T15:17:22;9.50;;;3.77;;
3733;SDS011;1882;52.256;8.874;2022-11-04T15:19:50;12.27;;;5.40;;
3733;SDS011;1882;52.256;8.874;2022-11-04T15:22:19;8.10;;;5.10;;
3733;SDS011;1882;52.256;8.874;2022-11-04T15:24:45;8.87;;;4.83;;
3733;SDS011;1882;52.256;8.874;2022-11-04T15:27:16;19.93;;;8.77;;
3733;SDS011;1882;52.256;8.874;2022-11-04T15:30:00;15.90;;;7.70;;
3733;SDS011;1882;52.256;8.874;2022-11-04T15:32:28;25.13;;;10.20;;
3733;SDS011;1882;52.256;8.874;2022-11-04T15:34:55;23.30;;;10.80;;
3733;SDS011;1882;52.256;8.874;2022-11-04T15:37:22;18.17;;;8.53;;
3733;SDS011;1882;52.256;8.874;2022-11-04T15:39:51;15.70;;;7.10;;
3733;SDS011;1882;52.256;8.874;2022-11-04T15:42:27;9.50;;;4.80;;
3733;SDS011;1882;52.256;8.874;2022-11-04T15:47:48;7.33;;;4.10;;
3733;SDS011;1882;52.256;8.874;2022-11-04T15:50:20;7.40;;;4.27;;
3733;SDS011;1882;52.256;8.874;2022-11-04T15:52:54;8.10;;;4.10;;
3733;SDS011;1882;52.256;8.874;2022-11-04T15:55:22;6.23;;;4.17;;
3733;SDS011;1882;52.256;8.874;2022-11-04T15:57:50;8.07;;;4.60;;
3733;SDS011;1882;52.256;8.874;2022-11-04T16:00:24;6.53;;;4.40;;
3733;SDS011;1882;52.256;8.874;2022-11-04T16:02:52;7.53;;;4.43;;
3733;SDS011;1882;52.256;8.874;2022-11-04T16:05:25;8.37;;;4.50;;
3733;SDS011;1882;52.256;8.874;2022-11-04T16:07:55;10.50;;;4.33;;
3733;SDS011;1882;52.256;8.874;2022-11-04T16:10:40;12.73;;;4.37;;
3733;SDS011;1882;52.256;8.874;2022-11-04T16:20:56;8.90;;;5.40;;
3733;SDS011;1882;52.256;8.874;2022-11-04T16:23:23;7.90;;;5.27;;
3733;SDS011;1882;52.256;8.874;2022-11-04T16:25:58;8.57;;;5.03;;
3733;SDS011;1882;52.256;8.874;2022-11-04T16:28:27;8.03;;;5.57;;
3733;SDS011;1882;52.256;8.874;2022-11-04T16:30:59;14.03;;;6.10;;
3733;SDS011;1882;52.256;8.874;2022-11-04T16:33:52;12.10;;;5.40;;
3733;SDS011;1882;52.256;8.874;2022-11-04T16:36:18;9.90;;;6.13;;
3733;SDS011;1882;52.256;8.874;2022-11-04T16:39:00;11.63;;;6.70;;
3733;SDS011;1882;52.256;8.874;2022-11-04T16:41:34;11.03;;;5.80;;
3733;SDS011;1882;52.256;8.874;2022-11-04T16:44:09;11.80;;;6.33;;
3733;SDS011;1882;52.256;8.874;2022-11-04T16:46:41;15.00;;;6.33;;
3733;SDS011;1882;52.256;8.874;2022-11-04T16:49:16;12.40;;;5.73;;
3733;SDS011;1882;52.256;8.874;2022-11-04T16:51:45;11.10;;;6.80;;
3733;SDS011;1882;52.256;8.874;2022-11-04T16:54:14;15.00;;;7.20;;
3733;SDS011;1882;52.256;8.874;2022-11-04T16:56:44;14.10;;;7.20;;
3733;SDS011;1882;52.256;8.874;2022-11-04T16:59:11;13.20;;;7.20;;
3733;SDS011;1882;52.256;8.874;2022-11-04T17:01:38;11.27;;;6.93;;
3733;SDS011;1882;52.256;8.874;2022-11-04T17:04:06;19.43;;;7.57;;
3733;SDS011;1882;52.256;8.874;2022-11-04T17:06:33;11.97;;;7.13;;
3733;SDS011;1882;52.256;8.874;2022-11-04T17:12:06;12.97;;;7.73;;
3733;SDS011;1882;52.256;8.874;2022-11-04T17:14:33;13.60;;;7.40;;
3733;SDS011;1882;52.256;8.874;2022-11-04T17:17:00;18.63;;;7.77;;
3733;SDS011;1882;52.256;8.874;2022-11-04T17:19:37;17.40;;;7.60;;
3733;SDS011;1882;52.256;8.874;2022-11-04T17:22:04;14.03;;;7.97;;
3733;SDS011;1882;52.256;8.874;2022-11-04T17:24:33;18.77;;;8.00;;
3733;SDS011;1882;52.256;8.874;2022-11-04T17:27:08;17.00;;;7.93;;
3733;SDS011;1882;52.256;8.874;2022-11-04T17:29:35;15.03;;;7.57;;
3733;SDS011;1882;52.256;8.874;2022-11-04T17:32:05;17.00;;;7.70;;
3733;SDS011;1882;52.256;8.874;2022-11-04T17:34:41;14.67;;;7.80;;
3733;SDS011;1882;52.256;8.874;2022-11-04T17:37:26;15.23;;;8.70;;
3733;SDS011;1882;52.256;8.874;2022-11-04T17:39:54;21.80;;;8.77;;
3733;SDS011;1882;52.256;8.874;2022-11-04T17:42:20;20.30;;;8.70;;
3733;SDS011;1882;52.256;8.874;2022-11-04T17:45:06;22.93;;;9.40;;
3733;SDS011;1882;52.256;8.874;2022-11-04T17:47:41;17.60;;;8.93;;
3733;SDS011;1882;52.256;8.874;2022-11-04T17:50:26;19.70;;;9.07;;
3733;SDS011;1882;52.256;8.874;2022-11-04T17:52:55;19.20;;;9.47;;
3733;SDS011;1882;52.256;8.874;2022-11-04T17:55:24;14.80;;;8.77;;
3733;SDS011;1882;52.256;8.874;2022-11-04T17:57:53;15.17;;;9.60;;
3733;SDS011;1882;52.256;8.874;2022-11-04T18:00:20;19.20;;;9.93;;
3733;SDS011;1882;52.256;8.874;2022-11-04T18:02:53;19.13;;;10.10;;
3733;SDS011;1882;52.256;8.874;2022-11-04T18:05:26;21.50;;;10.80;;
3733;SDS011;1882;52.256;8.874;2022-11-04T18:07:53;23.10;;;10.97;;
3733;SDS011;1882;52.256;8.874;2022-11-04T18:10:23;21.77;;;10.43;;
3733;SDS011;1882;52.256;8.874;2022-11-04T18:12:52;22.17;;;10.03;;
3733;SDS011;1882;52.256;8.874;2022-11-04T18:15:22;21.17;;;10.60;;
3733;SDS011;1882;52.256;8.874;2022-11-04T18:17:53;22.17;;;10.13;;
3733;SDS011;1882;52.256;8.874;2022-11-04T18:20:27;22.83;;;11.43;;
3733;SDS011;1882;52.256;8.874;2022-11-04T18:22:54;21.90;;;11.13;;
3733;SDS011;1882;52.256;8.874;2022-11-04T18:25:24;20.17;;;9.67;;
3733;SDS011;1882;52.256;8.874;2022-11-04T18:27:54;20.23;;;10.77;;
3733;SDS011;1882;52.256;8.874;2022-11-04T18:30:20;26.17;;;13.00;;
3733;SDS011;1882;52.256;8.874;2022-11-04T18:32:49;22.57;;;11.90;;
3733;SDS011;1882;52.256;8.874;2022-11-04T18:35:30;22.80;;;11.67;;
3733;SDS011;1882;52.256;8.874;2022-11-04T18:38:03;17.10;;;10.20;;
3733;SDS011;1882;52.256;8.874;2022-11-04T18:40:36;20.73;;;10.77;;
3733;SDS011;1882;52.256;8.874;2022-11-04T18:43:06;20.53;;;9.83;;
3733;SDS011;1882;52.256;8.874;2022-11-04T18:45:35;23.70;;;10.10;;
3733;SDS011;1882;52.256;8.874;2022-11-04T18:48:01;19.03;;;10.60;;
3733;SDS011;1882;52.256;8.874;2022-11-04T18:53:20;31.83;;;11.90;;
3733;SDS011;1882;52.256;8.874;2022-11-04T18:55:52;23.30;;;10.77;;